Time;durP1;ratioP1;P1;durP2;ratioP2;P2;SDS_P1;SDS_P2;PMS_P1;PMS_P2;Temp;Humidity;BMP_temperature;BMP_pressure;BME280_temperature;BME280_humidity;BME280_pressure;Samples;Min_cycle;Max_cycle;Signal;HPM_P1;HPM_P2
2022/01/11 00:00:48;;;;;;;;;30.75;30.75;;;;;4.48;75.01;102603.13;5015633;28;45313;-72
2022/01/11 00:03:15;;;;;;;;;33.75;27.75;;;;;4.56;74.88;102615.88;5016102;28;45329;-72
2022/01/11 00:05:57;;;;;;;;;39.25;32.00;;;;;4.66;75.01;102635.03;4999029;28;45482;-72
2022/01/11 00:08:30;;;;;;;;;34.50;31.75;;;;;4.56;74.46;102613.25;5009225;28;45879;-72
2022/01/11 00:11:04;;;;;;;;;33.75;30.00;;;;;4.52;74.62;102608.59;5016212;28;45665;-72
2022/01/11 00:13:37;;;;;;;;;33.25;23.75;;;;;4.61;75.02;102625.91;5018613;28;45243;-72
2022/01/11 00:16:03;;;;;;;;;30.00;27.50;;;;;4.59;74.94;102623.97;5017480;28;45214;-72
2022/01/11 00:18:28;;;;;;;;;36.25;30.25;;;;;4.45;74.47;102601.94;5011193;28;45422;-72
2022/01/11 00:20:54;;;;;;;;;38.50;32.75;;;;;4.50;74.42;102618.94;5017076;28;45322;-72
2022/01/11 00:25:51;;;;;;;;;32.50;29.25;;;;;4.38;74.83;102607.50;5016099;28;45366;-72
2022/01/11 00:28:18;;;;;;;;;28.50;26.00;;;;;4.45;75.00;102625.50;5013110;28;45274;-72
2022/01/11 00:30:46;;;;;;;;;25.75;20.50;;;;;4.32;74.77;102615.78;5015883;28;45425;-72
2022/01/11 00:33:19;;;;;;;;;34.75;28.00;;;;;4.37;75.30;102622.31;5016128;28;45400;-72
2022/01/11 00:35:49;;;;;;;;;27.50;23.75;;;;;4.34;75.00;102608.97;5015834;28;44668;-72
2022/01/11 00:38:17;;;;;;;;;36.75;24.00;;;;;4.39;74.98;102631.16;5018486;28;45515;-72
2022/01/11 00:40:47;;;;;;;;;40.50;34.00;;;;;4.39;75.61;102632.88;5016090;28;46382;-73
2022/01/11 00:43:14;;;;;;;;;34.75;25.00;;;;;4.36;75.37;102624.78;5015737;28;45339;-72
2022/01/11 00:45:39;;;;;;;;;35.25;27.25;;;;;4.35;75.40;102618.66;5016575;28;45351;-72
2022/01/11 00:48:05;;;;;;;;;32.25;24.75;;;;;4.37;75.31;102635.41;5014935;28;45553;-72
2022/01/11 00:50:32;;;;;;;;;37.00;25.75;;;;;4.36;75.59;102632.66;5017137;28;45456;-72
2022/01/11 00:53:00;;;;;;;;;35.00;26.25;;;;;4.05;75.04;102593.56;5014124;28;45278;-72
2022/01/11 00:55:25;;;;;;;;;38.50;31.00;;;;;4.29;75.63;102632.97;5017379;28;45711;-73
2022/01/11 00:57:50;;;;;;;;;42.75;30.75;;;;;4.18;75.20;102609.47;5013863;28;45598;-72
2022/01/11 01:00:16;;;;;;;;;35.75;29.00;;;;;4.12;75.69;102601.13;5017486;28;45407;-72
2022/01/11 01:02:42;;;;;;;;;34.50;24.25;;;;;4.28;75.60;102623.28;5011439;28;45369;-72
2022/01/11 01:05:08;;;;;;;;;34.50;32.25;;;;;4.37;75.96;102643.25;5018960;28;45411;-72
2022/01/11 01:07:34;;;;;;;;;37.75;29.50;;;;;4.26;75.96;102613.59;5017142;28;45587;-73
2022/01/11 01:10:04;;;;;;;;;32.75;27.50;;;;;4.33;75.38;102624.56;5022337;28;45635;-72
2022/01/11 01:12:36;;;;;;;;;33.50;26.75;;;;;4.41;75.05;102639.16;5017851;28;45258;-72
2022/01/11 01:15:02;;;;;;;;;33.75;27.75;;;;;4.34;75.55;102623.75;5022310;28;45324;-72
2022/01/11 01:17:28;;;;;;;;;29.00;24.00;;;;;4.34;75.47;102624.69;5010103;28;46194;-72
2022/01/11 01:19:53;;;;;;;;;37.75;26.25;;;;;4.37;75.16;102642.31;5022154;28;46454;-72
2022/01/11 01:22:19;;;;;;;;;34.00;28.75;;;;;4.44;75.25;102655.13;5012653;28;45480;-72
2022/01/11 01:24:46;;;;;;;;;30.00;28.50;;;;;4.36;75.82;102648.34;5004158;28;45679;-72
2022/01/11 01:27:11;;;;;;;;;37.75;30.00;;;;;4.23;75.40;102633.41;5015931;28;45420;-72
2022/01/11 01:29:40;;;;;;;;;22.75;16.25;;;;;4.28;75.58;102645.13;5021607;28;45778;-72
2022/01/11 01:32:07;;;;;;;;;32.75;26.75;;;;;4.28;75.21;102646.84;5016464;28;45360;-72
2022/01/11 01:34:32;;;;;;;;;31.00;28.75;;;;;4.14;75.12;102624.78;5021917;28;45325;-72
2022/01/11 01:36:57;;;;;;;;;31.25;26.25;;;;;4.18;75.71;102640.88;5017528;28;45385;-72
2022/01/11 01:39:24;;;;;;;;;29.25;24.75;;;;;4.24;75.65;102648.31;5021500;28;46270;-72
2022/01/11 01:41:50;;;;;;;;;31.50;26.25;;;;;4.19;75.58;102644.41;4996777;28;45199;-72
2022/01/11 01:44:15;;;;;;;;;24.00;18.25;;;;;4.22;75.36;102674.34;5021614;28;45242;-72
2022/01/11 01:46:41;;;;;;;;;31.75;24.00;;;;;4.17;75.47;102659.06;5015129;28;45442;-72
2022/01/11 01:49:07;;;;;;;;;29.75;25.25;;;;;4.07;75.88;102635.59;5020051;28;47415;-72
2022/01/11 01:51:33;;;;;;;;;29.75;22.75;;;;;4.04;75.26;102639.78;5015171;28;45241;-72
2022/01/11 01:53:59;;;;;;;;;36.75;30.50;;;;;4.06;75.49;102654.66;5003746;28;45377;-72
2022/01/11 01:56:26;;;;;;;;;25.75;24.75;;;;;4.02;75.92;102654.41;5015584;28;45519;-72
2022/01/11 01:58:51;;;;;;;;;31.75;21.75;;;;;4.02;75.83;102672.75;5017407;28;45405;-72
2022/01/11 02:01:18;;;;;;;;;29.25;20.25;;;;;4.04;75.87;102675.50;5016454;28;45400;-72
2022/01/11 02:03:45;;;;;;;;;33.75;28.75;;;;;4.12;75.71;102687.50;5018637;28;45284;-72
2022/01/11 02:06:13;;;;;;;;;43.25;32.25;;;;;4.00;75.63;102666.47;5016988;28;45388;-72
2022/01/11 02:08:39;;;;;;;;;35.50;29.25;;;;;4.00;75.98;102668.16;5019405;28;45639;-72
2022/01/11 02:11:06;;;;;;;;;36.25;29.25;;;;;4.15;75.43;102686.84;5018594;28;45369;-72
2022/01/11 02:13:32;;;;;;;;;46.00;33.00;;;;;4.04;76.04;102685.97;5003095;28;45367;-73
2022/01/11 02:15:58;;;;;;;;;39.25;30.00;;;;;3.97;76.08;102665.31;5018313;28;45348;-72
2022/01/11 02:18:26;;;;;;;;;42.00;30.50;;;;;4.20;76.00;102685.47;5027891;28;46884;-72
2022/01/11 02:20:58;;;;;;;;;28.75;25.50;;;;;4.08;75.79;102653.09;5019040;28;45294;-72
2022/01/11 02:23:25;;;;;;;;;35.25;30.75;;;;;4.25;75.84;102687.66;5013736;28;45224;-72
2022/01/11 02:25:51;;;;;;;;;38.25;28.50;;;;;4.26;76.13;102688.59;5017339;28;45543;-72
2022/01/11 02:28:20;;;;;;;;;35.25;27.00;;;;;4.18;76.13;102669.66;5017986;28;45383;-72
2022/01/11 02:30:46;;;;;;;;;37.75;35.00;;;;;4.32;76.14;102696.94;5018080;28;45438;-72
2022/01/11 02:33:26;;;;;;;;;37.25;29.75;;;;;4.36;75.80;102699.00;5017800;28;45219;-72
2022/01/11 02:35:52;;;;;;;;;44.50;31.75;;;;;4.26;75.95;102675.53;5016966;28;45451;-73
2022/01/11 02:38:17;;;;;;;;;37.75;29.25;;;;;4.29;75.23;102677.47;5020602;28;45463;-73
2022/01/11 02:40:44;;;;;;;;;46.25;35.75;;;;;4.40;75.94;102690.63;5018001;28;45347;-73
2022/01/11 02:43:10;;;;;;;;;37.25;32.25;;;;;4.37;75.62;102682.53;5015714;28;45368;-72
2022/01/11 02:45:35;;;;;;;;;36.50;36.00;;;;;4.31;75.70;102668.00;5018711;28;45328;-72
2022/01/11 02:48:01;;;;;;;;;46.00;39.75;;;;;4.35;75.26;102677.94;5015981;28;46550;-73
2022/01/11 02:50:26;;;;;;;;;44.75;38.25;;;;;4.35;75.59;102671.00;5018797;28;45431;-72
2022/01/11 02:52:52;;;;;;;;;45.00;38.25;;;;;4.34;75.41;102684.91;5016053;28;45395;-73
2022/01/11 02:55:18;;;;;;;;;52.50;40.50;;;;;4.23;75.32;102665.72;5019121;28;45359;-72
2022/01/11 02:57:45;;;;;;;;;42.00;38.00;;;;;4.39;75.32;102688.78;5015830;28;45222;-73
2022/01/11 03:00:16;;;;;;;;;43.75;33.00;;;;;4.27;75.43;102687.81;5019860;28;45238;-73
2022/01/11 03:02:42;;;;;;;;;50.00;38.00;;;;;4.15;75.19;102669.41;5014920;28;45222;-73
2022/01/11 03:05:10;;;;;;;;;54.50;38.75;;;;;4.12;75.39;102665.66;5019922;28;45301;-72
2022/01/11 03:07:36;;;;;;;;;50.50;38.00;;;;;4.14;75.19;102671.91;5017110;28;45322;-72
2022/01/11 03:12:55;;;;;;;;;47.25;35.50;;;;;3.99;74.78;102654.19;5018571;28;45411;-72
2022/01/11 03:15:20;;;;;;;;;49.25;38.00;;;;;4.16;74.98;102696.50;5018497;28;45237;-71
2022/01/11 03:17:46;;;;;;;;;49.25;39.75;;;;;4.20;75.68;102693.31;5011365;28;45348;-72
2022/01/11 03:20:11;;;;;;;;;42.00;34.75;;;;;4.04;75.38;102675.50;5019387;28;45357;-72
2022/01/11 03:22:37;;;;;;;;;44.25;34.75;;;;;4.18;74.95;102708.94;5011633;28;45344;-72
2022/01/11 03:25:05;;;;;;;;;46.00;39.00;;;;;4.15;75.43;102697.31;5020012;28;45507;-72
2022/01/11 03:27:31;;;;;;;;;53.00;37.25;;;;;4.09;74.91;102689.88;5013992;28;45677;-72
2022/01/11 03:29:56;;;;;;;;;41.50;38.25;;;;;4.09;75.43;102691.53;5019714;28;45289;-72
2022/01/11 03:32:21;;;;;;;;;36.50;30.50;;;;;4.16;75.17;102717.44;5013900;28;45241;-72
2022/01/11 03:34:47;;;;;;;;;44.50;36.25;;;;;4.09;74.97;102715.09;5019960;28;45213;-72
2022/01/11 03:37:16;;;;;;;;;39.00;32.00;;;;;4.14;75.17;102721.63;5017583;28;45171;-72
2022/01/11 03:39:41;;;;;;;;;44.50;35.25;;;;;4.06;74.97;102712.22;5002043;28;45277;-72
2022/01/11 03:42:07;;;;;;;;;36.50;32.00;;;;;4.09;74.89;102712.47;5012778;28;45226;-72
2022/01/11 03:44:32;;;;;;;;;39.50;33.75;;;;;4.08;75.12;102711.56;5001815;28;46937;-72
2022/01/11 03:46:59;;;;;;;;;45.50;38.75;;;;;4.07;75.02;102714.09;5013142;28;45243;-72
2022/01/11 03:49:24;;;;;;;;;45.25;39.00;;;;;4.06;74.96;102714.84;5019647;28;45382;-72
2022/01/11 03:51:50;;;;;;;;;43.00;38.75;;;;;3.93;74.89;102697.25;5013388;28;45830;-72
2022/01/11 03:54:23;;;;;;;;;35.25;33.75;;;;;4.01;75.05;102710.19;5019438;28;45504;-72
2022/01/11 03:56:48;;;;;;;;;46.25;38.75;;;;;4.10;74.86;102728.31;5011733;28;46708;-72
2022/01/11 03:59:14;;;;;;;;;40.50;34.25;;;;;3.99;75.08;102711.75;5013811;28;45330;-72
2022/01/11 04:01:40;;;;;;;;;43.25;37.00;;;;;3.89;75.12;102695.16;5014929;28;45393;-72
2022/01/11 04:04:07;;;;;;;;;33.25;31.00;;;;;3.95;74.74;102711.34;5001549;28;45926;-72
2022/01/11 04:06:32;;;;;;;;;36.00;30.50;;;;;4.09;74.55;102736.03;5014473;28;47891;-72
2022/01/11 04:08:58;;;;;;;;;39.50;33.50;;;;;3.82;74.96;102688.53;5001535;28;45911;-72
2022/01/11 04:11:23;;;;;;;;;33.50;28.75;;;;;3.88;75.10;102704.72;5016843;28;45414;-72
2022/01/11 04:13:49;;;;;;;;;39.25;33.00;;;;;3.97;74.71;102712.41;5018133;28;45368;-72
2022/01/11 04:16:15;;;;;;;;;42.50;29.50;;;;;3.87;74.87;102691.53;5016639;28;46307;-72
2022/01/11 04:18:40;;;;;;;;;44.50;39.00;;;;;3.88;75.02;102702.09;5011740;28;45278;-72
2022/01/11 04:21:06;;;;;;;;;43.75;37.50;;;;;3.94;74.82;102722.63;5016093;28;45456;-72
2022/01/11 04:23:32;;;;;;;;;40.50;35.50;;;;;3.91;75.04;102725.00;5011968;28;45606;-72
2022/01/11 04:25:59;;;;;;;;;46.00;38.00;;;;;3.85;74.97;102709.69;5015475;28;45590;-72
2022/01/11 04:28:25;;;;;;;;;39.50;32.50;;;;;3.91;74.64;102717.13;5017039;28;45464;-72
2022/01/11 04:30:52;;;;;;;;;97.33;73.00;;;;;3.83;74.96;102697.28;5015839;28;45315;-72
2022/01/11 04:33:18;;;;;;;;;46.25;35.75;;;;;3.97;74.85;102733.34;5014447;28;45282;-72
2022/01/11 04:35:48;;;;;;;;;93.33;73.67;;;;;3.90;74.44;102724.09;5016412;28;46097;-72
2022/01/11 04:38:15;;;;;;;;;41.25;33.00;;;;;3.92;74.83;102718.94;5018537;28;45326;-72
2022/01/11 04:40:41;;;;;;;;;140.00;121.67;;;;;3.63;75.22;102670.41;5019781;28;45253;-72
2022/01/11 04:43:06;;;;;;;;;105.33;92.33;;;;;3.75;74.72;102696.66;5018174;28;45375;-72
2022/01/11 04:45:31;;;;;;;;;46.25;36.25;;;;;3.64;74.49;102702.69;5002465;28;46939;-72
2022/01/11 04:47:57;;;;;;;;;60.00;45.75;;;;;3.74;74.88;102734.06;5018082;28;45369;-72
2022/01/11 04:50:24;;;;;;;;;46.75;38.25;;;;;3.74;74.44;102753.28;5019531;28;45296;-72
2022/01/11 04:52:50;;;;;;;;;34.25;27.75;;;;;3.57;74.71;102730.03;5020400;28;45266;-72
2022/01/11 04:55:16;;;;;;;;;32.25;27.00;;;;;3.59;74.91;102746.78;5021106;28;46279;-71
2022/01/11 04:57:41;;;;;;;;;38.50;30.25;;;;;3.51;75.00;102750.44;5019732;28;45397;-72
2022/01/11 05:00:07;;;;;;;;;36.50;30.25;;;;;3.49;75.16;102757.25;5022492;28;45274;-73
2022/01/11 05:02:33;;;;;;;;;47.25;34.50;;;;;3.31;75.32;102730.47;5015595;28;45413;-72
2022/01/11 05:04:58;;;;;;;;;54.25;42.25;;;;;3.32;75.48;102746.28;5021864;28;45401;-73
2022/01/11 05:07:24;;;;;;;;;40.25;30.50;;;;;3.28;75.15;102735.44;5017807;28;45436;-72
2022/01/11 05:09:51;;;;;;;;;35.75;29.75;;;;;3.26;75.31;102730.06;5022003;28;45246;-72
2022/01/11 05:12:16;;;;;;;;;33.75;28.75;;;;;3.14;75.36;102714.28;5003418;28;45452;-72
2022/01/11 05:14:42;;;;;;;;;32.75;26.50;;;;;3.36;75.64;102766.69;5007496;28;48078;-72
2022/01/11 05:17:07;;;;;;;;;33.75;30.00;;;;;3.34;75.62;102749.03;5012549;28;45275;-72
2022/01/11 05:19:32;;;;;;;;;30.00;26.50;;;;;3.29;75.90;102737.25;5021807;28;45239;-72
2022/01/11 05:21:58;;;;;;;;;46.25;33.75;;;;;3.31;75.73;102746.16;5013833;28;45283;-72
2022/01/11 05:24:23;;;;;;;;;45.75;35.75;;;;;3.40;75.54;102760.00;5021219;28;45426;-72
2022/01/11 05:26:48;;;;;;;;;57.50;42.50;;;;;3.24;75.53;102746.41;5015306;28;45352;-72
2022/01/11 05:29:14;;;;;;;;;40.50;35.50;;;;;3.24;75.02;102749.03;5021644;28;45339;-72
2022/01/11 05:31:39;;;;;;;;;34.50;29.50;;;;;3.22;75.45;102745.34;5014033;28;47162;-72
2022/01/11 05:34:04;;;;;;;;;40.50;32.25;;;;;3.24;75.65;102749.94;5020331;28;47114;-72
2022/01/11 05:36:30;;;;;;;;;45.25;39.50;;;;;3.33;75.66;102755.03;5018175;28;45404;-72
2022/01/11 05:38:55;;;;;;;;;49.00;32.50;;;;;3.41;75.22;102773.97;5021740;28;45442;-72
2022/01/11 05:41:21;;;;;;;;;41.50;35.25;;;;;3.27;75.14;102767.56;5015410;28;45598;-72
2022/01/11 05:43:46;;;;;;;;;45.50;33.75;;;;;3.10;75.35;102753.97;5021080;28;46716;-73
2022/01/11 05:46:12;;;;;;;;;38.50;34.00;;;;;3.12;75.13;102775.03;5015412;28;45337;-73
2022/01/11 05:48:37;;;;;;;;;36.75;31.00;;;;;3.01;75.01;102747.97;5020271;28;45293;-71
2022/01/11 05:51:03;;;;;;;;;73.67;58.33;;;;;3.16;75.21;102779.72;5015327;28;45570;-71
2022/01/11 05:53:28;;;;;;;;;50.75;40.75;;;;;3.03;75.79;102755.94;5019868;28;45509;-73
2022/01/11 05:55:53;;;;;;;;;39.00;33.25;;;;;3.18;75.26;102791.22;5017735;28;45485;-73
2022/01/11 05:58:19;;;;;;;;;40.25;34.50;;;;;3.19;75.58;102798.25;5015007;28;45354;-73
2022/01/11 06:00:44;;;;;;;;;54.25;40.50;;;;;3.24;75.08;102796.06;5018922;28;45603;-73
2022/01/11 06:03:10;;;;;;;;;66.00;51.00;;;;;3.20;75.10;102796.59;5016109;28;46159;-73
2022/01/11 06:05:38;;;;;;;;;46.75;38.75;;;;;3.10;75.22;102777.50;5001495;28;45473;-72
2022/01/11 06:08:05;;;;;;;;;40.75;35.00;;;;;3.12;75.41;102772.41;5017506;28;45254;-73
2022/01/11 06:10:31;;;;;;;;;38.25;31.75;;;;;3.18;74.87;102786.00;5019256;28;45459;-72
2022/01/11 06:12:57;;;;;;;;;58.00;38.75;;;;;3.17;75.42;102785.88;5018970;28;46268;-73
2022/01/11 06:15:22;;;;;;;;;50.25;35.50;;;;;3.21;75.50;102795.78;5001868;28;45330;-73
2022/01/11 06:17:48;;;;;;;;;37.25;33.00;;;;;3.20;74.72;102792.28;5012137;28;45478;-72
2022/01/11 06:20:13;;;;;;;;;41.50;34.25;;;;;3.30;75.68;102822.72;5020403;28;45472;-73
2022/01/11 06:22:39;;;;;;;;;49.25;38.50;;;;;3.29;75.18;102816.59;5019560;28;46355;-72
2022/01/11 06:25:06;;;;;;;;;39.00;23.75;;;;;3.12;75.76;102791.59;4992967;28;45855;-72
2022/01/11 06:27:32;;;;;;;;;52.50;42.50;;;;;3.29;75.21;102832.25;5013071;28;45383;-72
2022/01/11 06:29:58;;;;;;;;;58.75;45.25;;;;;3.30;75.48;102827.94;5019591;28;45482;-73
2022/01/11 06:32:24;;;;;;;;;49.00;39.00;;;;;3.24;75.46;102811.75;5014961;28;46697;-72
2022/01/11 06:34:49;;;;;;;;;58.67;46.67;;;;;3.25;75.51;102816.16;5002254;28;46086;-73
2022/01/11 06:37:14;;;;;;;;;101.33;79.67;;;;;3.16;75.69;102800.63;5014654;28;45350;-72
2022/01/11 06:39:40;;;;;;;;;50.25;41.75;;;;;3.20;75.31;102805.34;5019095;28;45611;-73
2022/01/11 06:42:05;;;;;;;;;65.00;50.00;;;;;3.23;75.40;102820.38;5012910;28;48254;-72
2022/01/11 06:44:31;;;;;;;;;61.50;45.00;;;;;3.26;75.26;102815.41;5033905;28;45238;-72
2022/01/11 06:46:57;;;;;;;;;82.67;62.00;;;;;3.26;74.99;102821.53;5013841;28;45436;-72
2022/01/11 06:49:23;;;;;;;;;46.00;38.00;;;;;3.10;74.37;102792.25;5034098;28;47025;-72
2022/01/11 06:51:48;;;;;;;;;118.33;93.67;;;;;3.31;75.43;102824.56;5014649;28;45408;-72
2022/01/11 06:54:14;;;;;;;;;89.00;66.00;;;;;3.11;74.85;102788.88;5018734;28;45266;-72
2022/01/11 06:56:39;;;;;;;;;92.33;71.33;;;;;3.19;74.23;102813.03;5015157;28;45413;-72
2022/01/11 06:59:05;;;;;;;;;142.75;123.50;;;;;3.14;74.54;102812.66;5018537;28;45531;-72
2022/01/11 07:01:31;;;;;;;;;64.50;47.50;;;;;3.06;74.57;102818.91;5013440;28;46326;-72
2022/01/11 07:03:56;;;;;;;;;70.67;51.67;;;;;2.97;74.92;102819.03;5018058;28;45466;-72
2022/01/11 07:06:21;;;;;;;;;111.00;93.33;;;;;2.93;74.96;102811.69;5013693;28;45433;-72
2022/01/11 07:08:47;;;;;;;;;63.33;50.00;;;;;2.93;74.46;102822.13;5018011;28;45704;-72
2022/01/11 07:11:12;;;;;;;;;55.25;44.50;;;;;2.93;74.65;102829.97;5015143;28;45436;-72
2022/01/11 07:13:38;;;;;;;;;69.75;51.50;;;;;2.91;75.25;102834.13;5017140;28;45467;-71
2022/01/11 07:16:03;;;;;;;;;95.33;70.67;;;;;2.73;74.24;102814.25;5016558;28;45365;-72
2022/01/11 07:18:29;;;;;;;;;50.00;41.75;;;;;2.64;74.97;102815.28;5017636;28;45420;-72
2022/01/11 07:20:54;;;;;;;;;77.33;59.00;;;;;2.70;75.47;102835.78;5014837;28;45476;-72
2022/01/11 07:23:20;;;;;;;;;61.50;48.50;;;;;2.57;74.61;102822.41;5016662;28;45431;-72
2022/01/11 07:25:45;;;;;;;;;58.75;44.00;;;;;2.53;74.85;102821.25;5015547;28;44885;-72
2022/01/11 07:28:14;;;;;;;;;334.00;285.00;;;;;2.54;74.57;102835.19;5007934;28;45216;-72
2022/01/11 07:30:39;;;;;;;;;94.33;74.00;;;;;2.56;75.04;102851.94;4996635;28;47099;-72
2022/01/11 07:33:05;;;;;;;;;54.50;40.75;;;;;2.44;74.84;102850.03;5013100;28;46709;-72
2022/01/11 07:35:30;;;;;;;;;71.67;54.33;;;;;2.48;75.32;102879.94;5013323;28;45561;-72
2022/01/11 07:37:56;;;;;;;;;62.25;46.00;;;;;2.44;74.88;102883.06;5017828;28;45328;-72
2022/01/11 07:40:21;;;;;;;;;61.00;43.75;;;;;2.49;75.40;102905.25;5017392;28;45556;-72
2022/01/11 07:42:48;;;;;;;;;68.75;48.50;;;;;2.43;75.43;102889.94;5013252;28;45462;-72
2022/01/11 07:45:14;;;;;;;;;67.00;52.00;;;;;2.43;75.24;102894.25;5018424;28;45714;-72
2022/01/11 07:47:40;;;;;;;;;53.25;42.25;;;;;2.39;75.29;102880.03;5015534;28;45697;-72
2022/01/11 07:50:08;;;;;;;;;60.25;43.75;;;;;2.42;75.68;102901.19;5019428;28;45280;-72
2022/01/11 07:52:34;;;;;;;;;52.00;40.25;;;;;2.26;75.44;102869.25;5011245;28;45301;-71
2022/01/11 07:55:00;;;;;;;;;68.67;47.00;;;;;2.28;74.79;102885.97;5016014;28;45282;-71
2022/01/11 07:57:26;;;;;;;;;50.75;41.75;;;;;2.32;75.62;102894.97;4994039;28;46500;-71
2022/01/11 07:59:52;;;;;;;;;71.33;52.00;;;;;2.04;75.99;102850.72;5019386;28;45292;-72
2022/01/11 08:02:17;;;;;;;;;67.00;47.67;;;;;2.10;76.06;102859.13;5015189;28;45408;-71
2022/01/11 08:04:43;;;;;;;;;70.00;54.33;;;;;2.13;75.70;102869.84;5016933;28;45177;-71
2022/01/11 08:07:10;;;;;;;;;79.00;60.33;;;;;2.28;75.83;102912.06;5017358;28;45375;-72
2022/01/11 08:09:35;;;;;;;;;89.00;67.00;;;;;2.22;75.72;102909.81;5017855;28;46464;-71
2022/01/11 08:12:00;;;;;;;;;54.75;43.50;;;;;2.11;75.25;102892.25;5017243;28;45407;-71
2022/01/11 08:14:26;;;;;;;;;62.50;45.25;;;;;2.25;75.79;102922.22;5018066;28;45283;-72
2022/01/11 08:16:52;;;;;;;;;61.75;44.75;;;;;2.32;75.74;102927.19;5012118;28;45559;-72
2022/01/11 08:19:20;;;;;;;;;59.67;45.00;;;;;2.27;75.88;102918.06;5016473;28;45587;-72
2022/01/11 08:21:47;;;;;;;;;52.33;45.00;;;;;2.22;75.68;102916.72;4991003;28;45336;-72
2022/01/11 08:24:12;;;;;;;;;75.33;56.33;;;;;2.29;75.88;102926.94;5015716;28;45188;-72
2022/01/11 08:26:38;;;;;;;;;65.67;50.00;;;;;2.28;75.93;102927.72;5012834;28;45399;-72
2022/01/11 08:29:03;;;;;;;;;54.50;46.25;;;;;2.41;75.80;102961.09;5011706;28;47468;-72
2022/01/11 08:31:29;;;;;;;;;58.75;42.50;;;;;2.22;75.50;102916.72;5024794;28;45546;-72
2022/01/11 08:33:55;;;;;;;;;60.50;44.25;;;;;2.37;75.15;102946.81;4999370;28;45249;-72
2022/01/11 08:36:20;;;;;;;;;61.00;42.25;;;;;2.25;75.86;102935.25;4996116;28;45340;-72
2022/01/11 08:38:45;;;;;;;;;53.75;44.50;;;;;2.30;75.59;102936.59;4997807;28;46945;-72
2022/01/11 08:41:11;;;;;;;;;52.75;43.75;;;;;2.44;75.31;102962.28;5008735;28;45272;-72
2022/01/11 08:43:36;;;;;;;;;67.00;45.25;;;;;2.43;75.53;102962.13;4998248;28;45309;-72
2022/01/11 08:46:03;;;;;;;;;69.67;50.33;;;;;2.46;75.95;102965.00;4994546;28;45512;-72
2022/01/11 08:48:29;;;;;;;;;73.00;53.33;;;;;2.33;75.36;102934.28;4997426;28;45643;-72
2022/01/11 08:50:55;;;;;;;;;65.33;49.33;;;;;2.34;75.51;102927.34;4995686;28;45709;-72
2022/01/11 08:53:21;;;;;;;;;67.25;46.75;;;;;2.43;75.61;102938.63;5025660;28;45342;-72
2022/01/11 08:55:50;;;;;;;;;61.75;47.25;;;;;2.56;75.50;102959.88;4995539;28;45477;-72
2022/01/11 08:58:16;;;;;;;;;60.75;45.00;;;;;2.49;75.14;102943.50;4996101;28;45402;-72
2022/01/11 09:00:41;;;;;;;;;64.75;50.50;;;;;2.40;75.51;102922.69;4997258;28;45230;-72
2022/01/11 09:03:07;;;;;;;;;68.00;52.67;;;;;2.31;75.43;102914.03;4996784;28;45333;-72
2022/01/11 09:05:32;;;;;;;;;68.00;46.33;;;;;2.41;74.94;102930.69;4996923;28;45548;-72
2022/01/11 09:07:58;;;;;;;;;66.33;51.33;;;;;2.46;75.18;102928.47;4990294;28;45258;-72
2022/01/11 09:10:23;;;;;;;;;68.00;50.33;;;;;2.44;75.02;102935.25;4997602;28;45274;-72
2022/01/11 09:12:50;;;;;;;;;67.50;48.00;;;;;2.35;75.64;102911.84;4990140;28;45398;-72
2022/01/11 09:15:15;;;;;;;;;65.33;50.67;;;;;2.60;75.61;102948.91;4996895;28;45412;-72
2022/01/11 09:17:41;;;;;;;;;71.00;53.67;;;;;2.76;75.70;102963.38;4993463;28;46088;-72
2022/01/11 09:20:09;;;;;;;;;64.00;49.67;;;;;2.86;75.45;102968.66;4998771;28;45315;-72
2022/01/11 09:22:35;;;;;;;;;75.33;52.00;;;;;2.96;75.07;102967.78;4990183;28;45427;-72
2022/01/11 09:25:00;;;;;;;;;63.75;46.50;;;;;2.96;74.75;102952.09;4998839;28;45234;-72
2022/01/11 09:27:26;;;;;;;;;62.75;47.50;;;;;3.13;75.05;102964.97;4995257;28;45212;-72
2022/01/11 09:29:52;;;;;;;;;60.67;49.00;;;;;2.94;73.83;102943.19;5018215;28;45388;-72
2022/01/11 09:32:17;;;;;;;;;66.33;49.00;;;;;3.15;73.95;102971.25;5015538;28;45360;-72
2022/01/11 09:34:43;;;;;;;;;66.75;48.00;;;;;3.04;73.99;102953.72;5021776;28;45345;-72
2022/01/11 09:37:09;;;;;;;;;65.00;50.00;;;;;2.96;74.73;102934.72;5018522;28;45579;-72
2022/01/11 09:39:36;;;;;;;;;56.00;45.25;;;;;3.06;74.50;102976.59;5021511;28;45259;-72
2022/01/11 09:42:05;;;;;;;;;62.00;47.33;;;;;3.12;73.82;102982.34;5015072;28;45349;-72
2022/01/11 09:44:32;;;;;;;;;66.00;52.33;;;;;3.06;74.19;102968.75;5021561;28;45452;-72
2022/01/11 09:46:58;;;;;;;;;63.00;51.75;;;;;2.83;74.08;102930.13;5014871;28;45751;-72
2022/01/11 09:49:23;;;;;;;;;76.00;53.33;;;;;3.13;74.07;102981.56;5021546;28;45334;-71
2022/01/11 09:51:50;;;;;;;;;64.50;51.75;;;;;3.08;74.34;102974.09;5013611;28;45457;-71
2022/01/11 09:54:19;;;;;;;;;62.50;46.50;;;;;3.01;74.21;102969.13;5018090;28;45495;-71
2022/01/11 09:56:44;;;;;;;;;59.33;50.00;;;;;2.94;74.23;102962.44;4995830;28;47552;-71
2022/01/11 09:59:09;;;;;;;;;56.00;45.25;;;;;2.88;73.87;102957.53;5016376;28;45244;-71
2022/01/11 10:01:36;;;;;;;;;63.00;49.67;;;;;3.06;74.00;102999.19;5018374;28;45230;-73
2022/01/11 10:04:08;;;;;;;;;66.25;49.00;;;;;3.01;74.06;102987.41;5002217;28;45995;-71
2022/01/11 10:06:37;;;;;;;;;69.00;55.00;;;;;3.06;74.60;102993.97;5019075;28;45420;-71
2022/01/11 10:09:18;;;;;;;;;66.33;50.33;;;;;2.96;74.25;102979.13;5021226;28;45377;-71
2022/01/11 10:11:47;;;;;;;;;60.75;49.75;;;;;3.14;74.15;103001.69;5015418;28;44696;-71
2022/01/11 10:14:17;;;;;;;;;67.25;48.25;;;;;3.11;74.77;102992.69;5016928;28;45385;-71
2022/01/11 10:16:43;;;;;;;;;70.67;51.67;;;;;3.00;73.97;102970.81;5015375;28;45436;-71
2022/01/11 10:19:25;;;;;;;;;63.75;51.75;;;;;3.16;74.27;103003.53;5017459;28;45302;-71
2022/01/11 10:21:54;;;;;;;;;69.33;48.67;;;;;3.06;74.57;102992.25;5015534;28;45254;-71
2022/01/11 10:24:32;;;;;;;;;66.00;50.00;;;;;3.22;74.69;103006.69;5020786;28;45237;-71
2022/01/11 10:27:06;;;;;;;;;71.33;54.67;;;;;3.35;74.01;103023.59;4994111;28;47375;-71
2022/01/11 10:29:33;;;;;;;;;69.25;50.00;;;;;3.34;74.15;103020.88;5020523;28;45333;-71
2022/01/11 10:32:01;;;;;;;;;62.25;50.00;;;;;3.34;73.81;103013.03;5014622;28;45362;-72
2022/01/11 10:34:33;;;;;;;;;69.33;53.33;;;;;3.38;73.78;103008.97;5002869;28;47172;-72
2022/01/11 10:37:03;;;;;;;;;66.25;50.00;;;;;3.43;73.85;103023.38;5015787;28;46682;-71
2022/01/11 10:39:32;;;;;;;;;66.00;48.25;;;;;3.22;73.51;103007.63;5020589;28;45234;-71
2022/01/11 10:41:59;;;;;;;;;70.75;53.00;;;;;2.98;73.60;102989.75;5014796;28;45492;-71
2022/01/11 10:44:47;;;;;;;;;62.00;51.25;;;;;3.19;74.04;103035.16;5020480;28;45326;-71
2022/01/11 10:47:26;;;;;;;;;67.67;50.33;;;;;3.17;74.13;103023.66;5014080;28;46650;-71
2022/01/11 10:49:58;;;;;;;;;67.50;51.50;;;;;3.14;74.09;103009.53;5015581;28;45155;-71
2022/01/11 10:52:27;;;;;;;;;65.33;53.00;;;;;3.21;74.53;103010.09;5013826;28;45515;-71
2022/01/11 10:54:54;;;;;;;;;74.33;55.00;;;;;3.24;73.49;103000.81;5016793;28;45264;-71
2022/01/11 10:57:22;;;;;;;;;67.50;51.25;;;;;3.47;73.63;103022.84;5014023;28;47567;-71
2022/01/11 11:00:24;;;;;;;;;75.33;57.67;;;;;3.55;74.14;103024.44;5016897;28;45296;-71
2022/01/11 11:02:53;;;;;;;;;69.67;55.00;;;;;3.50;73.17;103010.06;4938799;28;45363;-71
2022/01/11 11:05:25;;;;;;;;;72.67;54.67;;;;;3.38;72.88;103007.28;5005375;28;45172;-71
2022/01/11 11:08:00;;;;;;;;;71.67;54.00;;;;;3.21;72.89;102976.13;5033399;28;47192;-71
2022/01/11 11:10:46;;;;;;;;;79.00;56.00;;;;;3.52;73.27;103022.47;5018514;28;45587;-71
2022/01/11 11:13:30;;;;;;;;;75.67;57.67;;;;;3.61;73.30;103011.91;4994326;28;45255;-72
2022/01/11 11:16:17;;;;;;;;;160.75;130.75;;;;;3.67;73.55;103007.25;4996184;28;46316;-71
2022/01/11 11:18:48;;;;;;;;;75.00;54.00;;;;;3.65;73.20;102994.81;5011314;28;45679;-72
2022/01/11 11:21:21;;;;;;;;;101.33;68.67;;;;;3.86;73.30;103022.81;5003362;28;45376;-71